sensor_id;sensor_type;location;lat;lon;timestamp;temperature;humidity
55369;DHT22;41247;49.736;8.752;2022-12-24T00:00:47;9.20;99.90
55369;DHT22;41247;49.736;8.752;2022-12-24T00:04:28;9.10;99.90
55369;DHT22;41247;49.736;8.752;2022-12-24T00:08:08;9.20;99.90
55369;DHT22;41247;49.736;8.752;2022-12-24T00:11:49;9.20;99.90
55369;DHT22;41247;49.736;8.752;2022-12-24T00:15:29;9.30;99.90
55369;DHT22;41247;49.736;8.752;2022-12-24T00:19:10;9.30;99.90
55369;DHT22;41247;49.736;8.752;2022-12-24T00:22:51;9.30;99.90
55369;DHT22;41247;49.736;8.752;2022-12-24T00:26:32;9.30;99.90
55369;DHT22;41247;49.736;8.752;2022-12-24T00:30:13;9.30;99.90
55369;DHT22;41247;49.736;8.752;2022-12-24T00:33:54;9.30;99.90
55369;DHT22;41247;49.736;8.752;2022-12-24T00:37:35;9.30;99.90
55369;DHT22;41247;49.736;8.752;2022-12-24T00:41:15;9.40;99.90
55369;DHT22;41247;49.736;8.752;2022-12-24T00:44:56;9.30;99.90
55369;DHT22;41247;49.736;8.752;2022-12-24T00:48:37;9.30;99.90
55369;DHT22;41247;49.736;8.752;2022-12-24T00:52:17;9.20;99.90
55369;DHT22;41247;49.736;8.752;2022-12-24T00:55:58;9.20;99.90
55369;DHT22;41247;49.736;8.752;2022-12-24T00:59:39;9.30;99.90
55369;DHT22;41247;49.736;8.752;2022-12-24T01:03:19;9.30;99.90
55369;DHT22;41247;49.736;8.752;2022-12-24T01:07:00;9.30;99.90
55369;DHT22;41247;49.736;8.752;2022-12-24T01:10:40;9.30;99.90
55369;DHT22;41247;49.736;8.752;2022-12-24T01:14:21;9.30;99.90
55369;DHT22;41247;49.736;8.752;2022-12-24T01:18:02;9.30;99.90
55369;DHT22;41247;49.736;8.752;2022-12-24T01:21:42;9.30;99.90
55369;DHT22;41247;49.736;8.752;2022-12-24T01:25:23;9.30;99.90
55369;DHT22;41247;49.736;8.752;2022-12-24T01:29:04;9.30;99.90
55369;DHT22;41247;49.736;8.752;2022-12-24T01:32:44;9.30;99.90
55369;DHT22;41247;49.736;8.752;2022-12-24T01:36:25;9.30;99.90
55369;DHT22;41247;49.736;8.752;2022-12-24T01:40:06;9.40;99.90
55369;DHT22;41247;49.736;8.752;2022-12-24T01:43:48;9.50;99.90
55369;DHT22;41247;49.736;8.752;2022-12-24T01:47:29;9.50;99.90
55369;DHT22;41247;49.736;8.752;2022-12-24T01:51:35;9.50;99.90
55369;DHT22;41247;49.736;8.752;2022-12-24T01:55:18;9.50;99.90
55369;DHT22;41247;49.736;8.752;2022-12-24T01:59:06;9.40;99.90
55369;DHT22;41247;49.736;8.752;2022-12-24T02:02:51;9.50;99.90
55369;DHT22;41247;49.736;8.752;2022-12-24T02:06:32;9.40;99.90
55369;DHT22;41247;49.736;8.752;2022-12-24T02:10:13;9.40;99.90
55369;DHT22;41247;49.736;8.752;2022-12-24T02:13:57;9.30;99.90
55369;DHT22;41247;49.736;8.752;2022-12-24T02:30:10;9.20;99.90
55369;DHT22;41247;49.736;8.752;2022-12-24T02:33:58;9.30;99.90
55369;DHT22;41247;49.736;8.752;2022-12-24T02:37:49;9.40;99.90
55369;DHT22;41247;49.736;8.752;2022-12-24T02:41:35;9.30;99.90
55369;DHT22;41247;49.736;8.752;2022-12-24T02:45:21;9.30;99.90
55369;DHT22;41247;49.736;8.752;2022-12-24T02:49:05;9.20;99.90
55369;DHT22;41247;49.736;8.752;2022-12-24T02:52:47;9.20;99.90
55369;DHT22;41247;49.736;8.752;2022-12-24T03:05:04;9.20;99.90
55369;DHT22;41247;49.736;8.752;2022-12-24T03:09:27;9.20;99.90
55369;DHT22;41247;49.736;8.752;2022-12-24T03:13:17;9.20;99.90
55369;DHT22;41247;49.736;8.752;2022-12-24T03:16:59;9.10;99.90
55369;DHT22;41247;49.736;8.752;2022-12-24T03:20:44;9.10;99.90
55369;DHT22;41247;49.736;8.752;2022-12-24T03:24:27;9.10;99.90
55369;DHT22;41247;49.736;8.752;2022-12-24T03:28:09;9.00;99.90
55369;DHT22;41247;49.736;8.752;2022-12-24T03:31:59;9.00;99.90
55369;DHT22;41247;49.736;8.752;2022-12-24T03:35:41;9.00;99.90
55369;DHT22;41247;49.736;8.752;2022-12-24T03:39:22;9.00;99.90
55369;DHT22;41247;49.736;8.752;2022-12-24T03:43:03;9.10;99.90
55369;DHT22;41247;49.736;8.752;2022-12-24T03:46:43;9.10;99.90
55369;DHT22;41247;49.736;8.752;2022-12-24T03:50:24;9.10;99.90
55369;DHT22;41247;49.736;8.752;2022-12-24T03:54:05;9.10;99.90
55369;DHT22;41247;49.736;8.752;2022-12-24T03:57:45;9.00;99.90
55369;DHT22;41247;49.736;8.752;2022-12-24T04:01:27;9.00;99.90
55369;DHT22;41247;49.736;8.752;2022-12-24T04:05:11;9.10;99.90
55369;DHT22;41247;49.736;8.752;2022-12-24T04:08:53;9.10;99.90
55369;DHT22;41247;49.736;8.752;2022-12-24T04:12:35;9.10;99.90
55369;DHT22;41247;49.736;8.752;2022-12-24T04:16:16;9.10;99.90
55369;DHT22;41247;49.736;8.752;2022-12-24T04:19:56;9.10;99.90
55369;DHT22;41247;49.736;8.752;2022-12-24T04:23:38;9.10;99.90
55369;DHT22;41247;49.736;8.752;2022-12-24T04:27:19;9.10;99.90
55369;DHT22;41247;49.736;8.752;2022-12-24T04:31:02;9.10;99.90
55369;DHT22;41247;49.736;8.752;2022-12-24T04:34:45;9.10;99.90
55369;DHT22;41247;49.736;8.752;2022-12-24T04:38:26;9.10;99.90
55369;DHT22;41247;49.736;8.752;2022-12-24T04:42:06;9.00;99.90
55369;DHT22;41247;49.736;8.752;2022-12-24T04:45:47;9.00;99.90
55369;DHT22;41247;49.736;8.752;2022-12-24T04:49:28;8.90;99.90
55369;DHT22;41247;49.736;8.752;2022-12-24T04:53:08;8.90;99.90
55369;DHT22;41247;49.736;8.752;2022-12-24T04:56:49;8.80;99.90
55369;DHT22;41247;49.736;8.752;2022-12-24T05:00:29;8.70;99.90
55369;DHT22;41247;49.736;8.752;2022-12-24T05:04:10;8.60;99.90
55369;DHT22;41247;49.736;8.752;2022-12-24T05:07:50;8.60;99.90
55369;DHT22;41247;49.736;8.752;2022-12-24T05:11:31;8.60;99.90
55369;DHT22;41247;49.736;8.752;2022-12-24T05:15:12;8.60;99.90
55369;DHT22;41247;49.736;8.752;2022-12-24T05:18:53;8.50;99.90
55369;DHT22;41247;49.736;8.752;2022-12-24T05:22:34;8.50;99.90
55369;DHT22;41247;49.736;8.752;2022-12-24T05:26:18;8.50;99.90
55369;DHT22;41247;49.736;8.752;2022-12-24T05:30:06;8.60;99.90
55369;DHT22;41247;49.736;8.752;2022-12-24T05:33:47;8.60;99.90
55369;DHT22;41247;49.736;8.752;2022-12-24T05:37:27;8.70;99.90
55369;DHT22;41247;49.736;8.752;2022-12-24T05:41:08;8.70;99.90
55369;DHT22;41247;49.736;8.752;2022-12-24T05:44:49;8.80;99.90
55369;DHT22;41247;49.736;8.752;2022-12-24T05:48:30;8.80;99.90
55369;DHT22;41247;49.736;8.752;2022-12-24T05:52:10;8.80;99.90
55369;DHT22;41247;49.736;8.752;2022-12-24T05:55:51;8.90;99.90
55369;DHT22;41247;49.736;8.752;2022-12-24T05:59:32;8.90;99.90
55369;DHT22;41247;49.736;8.752;2022-12-24T06:03:12;8.90;99.90
55369;DHT22;41247;49.736;8.752;2022-12-24T06:06:53;8.90;99.90
55369;DHT22;41247;49.736;8.752;2022-12-24T06:10:33;8.90;99.90
55369;DHT22;41247;49.736;8.752;2022-12-24T06:14:14;8.90;99.90
55369;DHT22;41247;49.736;8.752;2022-12-24T06:17:54;8.90;99.90
55369;DHT22;41247;49.736;8.752;2022-12-24T06:21:35;9.00;99.90
55369;DHT22;41247;49.736;8.752;2022-12-24T06:25:16;9.00;99.90
55369;DHT22;41247;49.736;8.752;2022-12-24T06:29:37;9.00;99.90
55369;DHT22;41247;49.736;8.752;2022-12-24T09:14:44;9.60;99.90
55369;DHT22;41247;49.736;8.752;2022-12-24T09:18:26;9.60;99.90
55369;DHT22;41247;49.736;8.752;2022-12-24T09:22:07;9.60;99.90
55369;DHT22;41247;49.736;8.752;2022-12-24T09:25:47;9.50;99.90
55369;DHT22;41247;49.736;8.752;2022-12-24T09:29:28;9.60;99.90
55369;DHT22;41247;49.736;8.752;2022-12-24T09:33:09;9.60;99.90
55369;DHT22;41247;49.736;8.752;2022-12-24T09:36:50;9.70;99.90
55369;DHT22;41247;49.736;8.752;2022-12-24T09:40:44;9.90;99.90
55369;DHT22;41247;49.736;8.752;2022-12-24T09:49:04;10.10;99.90
55369;DHT22;41247;49.736;8.752;2022-12-24T09:52:46;10.20;99.90
55369;DHT22;41247;49.736;8.752;2022-12-24T09:56:36;10.20;99.90
55369;DHT22;41247;49.736;8.752;2022-12-24T10:00:28;10.20;99.90
55369;DHT22;41247;49.736;8.752;2022-12-24T10:04:13;10.20;99.90
55369;DHT22;41247;49.736;8.752;2022-12-24T10:08:32;10.20;99.90
55369;DHT22;41247;49.736;8.752;2022-12-24T10:12:33;10.20;99.90
55369;DHT22;41247;49.736;8.752;2022-12-24T10:16:33;10.20;99.90
55369;DHT22;41247;49.736;8.752;2022-12-24T10:24:28;10.20;99.90
55369;DHT22;41247;49.736;8.752;2022-12-24T10:28:15;10.00;99.90
55369;DHT22;41247;49.736;8.752;2022-12-24T10:35:54;9.90;99.90
55369;DHT22;41247;49.736;8.752;2022-12-24T10:39:35;10.00;99.90
55369;DHT22;41247;49.736;8.752;2022-12-24T10:43:19;10.00;99.90
55369;DHT22;41247;49.736;8.752;2022-12-24T10:47:03;9.90;99.90
55369;DHT22;41247;49.736;8.752;2022-12-24T10:55:12;10.00;99.90
55369;DHT22;41247;49.736;8.752;2022-12-24T10:59:01;10.10;99.90
55369;DHT22;41247;49.736;8.752;2022-12-24T11:02:42;10.20;99.90
55369;DHT22;41247;49.736;8.752;2022-12-24T11:06:23;10.10;99.90
55369;DHT22;41247;49.736;8.752;2022-12-24T11:10:07;10.30;99.90
55369;DHT22;41247;49.736;8.752;2022-12-24T11:13:55;10.50;99.90
55369;DHT22;41247;49.736;8.752;2022-12-24T11:17:35;10.50;99.90
55369;DHT22;41247;49.736;8.752;2022-12-24T11:21:27;10.40;99.90
55369;DHT22;41247;49.736;8.752;2022-12-24T11:25:21;10.40;99.90
55369;DHT22;41247;49.736;8.752;2022-12-24T11:29:21;10.40;99.90
55369;DHT22;41247;49.736;8.752;2022-12-24T11:36:44;10.40;99.90
55369;DHT22;41247;49.736;8.752;2022-12-24T11:40:32;10.40;99.90
55369;DHT22;41247;49.736;8.752;2022-12-24T11:44:17;10.30;99.90
55369;DHT22;41247;49.736;8.752;2022-12-24T11:48:27;10.40;99.90
55369;DHT22;41247;49.736;8.752;2022-12-24T11:55:55;10.40;99.90
55369;DHT22;41247;49.736;8.752;2022-12-24T11:59:45;10.50;99.90
55369;DHT22;41247;49.736;8.752;2022-12-24T12:03:34;10.50;99.90
55369;DHT22;41247;49.736;8.752;2022-12-24T12:07:24;10.60;99.90
55369;DHT22;41247;49.736;8.752;2022-12-24T12:11:11;10.60;99.90
55369;DHT22;41247;49.736;8.752;2022-12-24T12:14:59;10.50;99.90
55369;DHT22;41247;49.736;8.752;2022-12-24T12:18:54;10.50;99.90
55369;DHT22;41247;49.736;8.752;2022-12-24T12:23:06;10.40;99.90
55369;DHT22;41247;49.736;8.752;2022-12-24T12:27:22;10.30;99.90
55369;DHT22;41247;49.736;8.752;2022-12-24T12:35:08;9.90;99.90
55369;DHT22;41247;49.736;8.752;2022-12-24T12:38:56;9.80;99.90
55369;DHT22;41247;49.736;8.752;2022-12-24T12:42:38;9.60;99.90
55369;DHT22;41247;49.736;8.752;2022-12-24T12:46:33;9.50;99.90
55369;DHT22;41247;49.736;8.752;2022-12-24T12:50:28;9.40;99.90
55369;DHT22;41247;49.736;8.752;2022-12-24T12:58:32;9.20;99.90
55369;DHT22;41247;49.736;8.752;2022-12-24T13:10:44;8.90;99.90
55369;DHT22;41247;49.736;8.752;2022-12-24T13:19:04;8.80;99.90
55369;DHT22;41247;49.736;8.752;2022-12-24T13:23:14;8.80;99.90
55369;DHT22;41247;49.736;8.752;2022-12-24T13:27:18;8.90;99.90
55369;DHT22;41247;49.736;8.752;2022-12-24T13:34:47;9.00;99.90
55369;DHT22;41247;49.736;8.752;2022-12-24T13:38:55;9.00;99.90
55369;DHT22;41247;49.736;8.752;2022-12-24T13:43:08;9.00;99.90
55369;DHT22;41247;49.736;8.752;2022-12-24T13:47:17;9.00;99.90
55369;DHT22;41247;49.736;8.752;2022-12-24T13:51:18;9.00;99.90
55369;DHT22;41247;49.736;8.752;2022-12-24T13:55:11;9.10;99.90
55369;DHT22;41247;49.736;8.752;2022-12-24T14:06:53;9.20;99.90
55369;DHT22;41247;49.736;8.752;2022-12-24T14:10:39;9.20;99.90
55369;DHT22;41247;49.736;8.752;2022-12-24T14:14:30;9.10;99.90
55369;DHT22;41247;49.736;8.752;2022-12-24T14:18:21;9.10;99.90
55369;DHT22;41247;49.736;8.752;2022-12-24T14:22:35;9.00;99.90
55369;DHT22;41247;49.736;8.752;2022-12-24T14:26:21;9.00;99.90
55369;DHT22;41247;49.736;8.752;2022-12-24T14:30:24;9.00;99.90
55369;DHT22;41247;49.736;8.752;2022-12-24T14:34:12;8.90;99.90
55369;DHT22;41247;49.736;8.752;2022-12-24T14:37:59;8.80;99.90
55369;DHT22;41247;49.736;8.752;2022-12-24T14:54:36;8.70;99.90
55369;DHT22;41247;49.736;8.752;2022-12-24T14:58:41;8.70;99.90
55369;DHT22;41247;49.736;8.752;2022-12-24T15:06:32;8.60;99.90
55369;DHT22;41247;49.736;8.752;2022-12-24T15:10:35;8.60;99.90
55369;DHT22;41247;49.736;8.752;2022-12-24T15:14:17;8.50;99.90
55369;DHT22;41247;49.736;8.752;2022-12-24T15:17:59;8.50;99.90
55369;DHT22;41247;49.736;8.752;2022-12-24T15:21:41;8.50;99.90
55369;DHT22;41247;49.736;8.752;2022-12-24T15:25:30;8.50;99.90
55369;DHT22;41247;49.736;8.752;2022-12-24T15:29:22;8.50;99.90
55369;DHT22;41247;49.736;8.752;2022-12-24T15:33:04;8.50;99.90
55369;DHT22;41247;49.736;8.752;2022-12-24T15:36:45;8.50;99.90
55369;DHT22;41247;49.736;8.752;2022-12-24T15:40:26;8.50;99.90
55369;DHT22;41247;49.736;8.752;2022-12-24T15:44:12;8.50;99.90
55369;DHT22;41247;49.736;8.752;2022-12-24T15:47:58;8.50;99.90
55369;DHT22;41247;49.736;8.752;2022-12-24T15:51:40;8.50;99.90
55369;DHT22;41247;49.736;8.752;2022-12-24T16:03:16;8.50;99.90
55369;DHT22;41247;49.736;8.752;2022-12-24T16:06:59;8.60;99.90
55369;DHT22;41247;49.736;8.752;2022-12-24T16:10:44;8.50;99.90
55369;DHT22;41247;49.736;8.752;2022-12-24T16:14:57;8.50;99.90
55369;DHT22;41247;49.736;8.752;2022-12-24T16:18:53;8.50;99.90
55369;DHT22;41247;49.736;8.752;2022-12-24T16:22:37;8.50;99.90
55369;DHT22;41247;49.736;8.752;2022-12-24T16:26:25;8.60;99.90
55369;DHT22;41247;49.736;8.752;2022-12-24T16:30:07;8.60;99.90
55369;DHT22;41247;49.736;8.752;2022-12-24T16:33:51;8.60;99.90
55369;DHT22;41247;49.736;8.752;2022-12-24T16:37:32;8.60;99.90
55369;DHT22;41247;49.736;8.752;2022-12-24T16:41:13;8.50;99.90
55369;DHT22;41247;49.736;8.752;2022-12-24T16:44:53;8.60;99.90
55369;DHT22;41247;49.736;8.752;2022-12-24T16:48:37;8.60;99.90
55369;DHT22;41247;49.736;8.752;2022-12-24T16:52:32;8.60;99.90
55369;DHT22;41247;49.736;8.752;2022-12-24T16:56:28;8.60;99.90
55369;DHT22;41247;49.736;8.752;2022-12-24T17:00:20;8.60;99.90
55369;DHT22;41247;49.736;8.752;2022-12-24T17:04:17;8.60;99.90
55369;DHT22;41247;49.736;8.752;2022-12-24T17:07:59;8.60;99.90
55369;DHT22;41247;49.736;8.752;2022-12-24T17:12:03;8.60;99.90
55369;DHT22;41247;49.736;8.752;2022-12-24T17:15:46;8.70;99.90
55369;DHT22;41247;49.736;8.752;2022-12-24T17:19:27;8.70;99.90
55369;DHT22;41247;49.736;8.752;2022-12-24T17:23:11;8.70;99.90
55369;DHT22;41247;49.736;8.752;2022-12-24T17:26:51;8.70;99.90
55369;DHT22;41247;49.736;8.752;2022-12-24T17:30:32;8.70;99.90
55369;DHT22;41247;49.736;8.752;2022-12-24T17:34:18;8.70;99.90
55369;DHT22;41247;49.736;8.752;2022-12-24T17:38:01;8.70;99.90
55369;DHT22;41247;49.736;8.752;2022-12-24T17:41:42;8.70;99.90
55369;DHT22;41247;49.736;8.752;2022-12-24T17:45:22;8.70;99.90
55369;DHT22;41247;49.736;8.752;2022-12-24T17:53:29;8.80;99.90
55369;DHT22;41247;49.736;8.752;2022-12-24T17:57:09;8.80;99.90
55369;DHT22;41247;49.736;8.752;2022-12-24T18:00:50;8.80;99.90
55369;DHT22;41247;49.736;8.752;2022-12-24T18:04:36;8.80;99.90
55369;DHT22;41247;49.736;8.752;2022-12-24T18:08:20;8.80;99.90
55369;DHT22;41247;49.736;8.752;2022-12-24T18:12:00;8.90;99.90
55369;DHT22;41247;49.736;8.752;2022-12-24T18:15:41;8.90;99.90
55369;DHT22;41247;49.736;8.752;2022-12-24T18:19:22;8.90;99.90
55369;DHT22;41247;49.736;8.752;2022-12-24T18:23:03;8.90;99.90
55369;DHT22;41247;49.736;8.752;2022-12-24T18:26:44;8.90;99.90
55369;DHT22;41247;49.736;8.752;2022-12-24T18:30:35;8.90;99.90
55369;DHT22;41247;49.736;8.752;2022-12-24T18:34:16;8.90;99.90
55369;DHT22;41247;49.736;8.752;2022-12-24T18:37:56;8.90;99.90
55369;DHT22;41247;49.736;8.752;2022-12-24T18:41:37;8.90;99.90
55369;DHT22;41247;49.736;8.752;2022-12-24T18:45:17;8.90;99.90
55369;DHT22;41247;49.736;8.752;2022-12-24T18:48:59;8.90;99.90
55369;DHT22;41247;49.736;8.752;2022-12-24T18:52:40;8.90;99.90
55369;DHT22;41247;49.736;8.752;2022-12-24T18:56:22;8.90;99.90
55369;DHT22;41247;49.736;8.752;2022-12-24T19:00:05;8.90;99.90
55369;DHT22;41247;49.736;8.752;2022-12-24T19:03:46;8.90;99.90
55369;DHT22;41247;49.736;8.752;2022-12-24T19:07:27;8.90;99.90
55369;DHT22;41247;49.736;8.752;2022-12-24T19:11:08;8.90;99.90
55369;DHT22;41247;49.736;8.752;2022-12-24T19:14:48;8.80;99.90
55369;DHT22;41247;49.736;8.752;2022-12-24T19:18:29;8.80;99.90
55369;DHT22;41247;49.736;8.752;2022-12-24T19:22:09;8.80;99.90
55369;DHT22;41247;49.736;8.752;2022-12-24T19:25:50;8.90;99.90
55369;DHT22;41247;49.736;8.752;2022-12-24T19:29:30;8.90;99.90
55369;DHT22;41247;49.736;8.752;2022-12-24T19:33:11;8.90;99.90
55369;DHT22;41247;49.736;8.752;2022-12-24T19:36:52;8.90;99.90
55369;DHT22;41247;49.736;8.752;2022-12-24T19:40:35;8.90;99.90
55369;DHT22;41247;49.736;8.752;2022-12-24T19:44:16;8.90;99.90
55369;DHT22;41247;49.736;8.752;2022-12-24T19:47:57;9.00;99.90
55369;DHT22;41247;49.736;8.752;2022-12-24T19:51:38;9.00;99.90
55369;DHT22;41247;49.736;8.752;2022-12-24T19:55:18;9.00;99.90
55369;DHT22;41247;49.736;8.752;2022-12-24T19:59:00;9.00;99.90
55369;DHT22;41247;49.736;8.752;2022-12-24T20:02:41;9.00;99.90
55369;DHT22;41247;49.736;8.752;2022-12-24T20:06:24;9.00;99.90
55369;DHT22;41247;49.736;8.752;2022-12-24T20:10:07;9.00;99.90
55369;DHT22;41247;49.736;8.752;2022-12-24T20:13:48;9.00;99.90
55369;DHT22;41247;49.736;8.752;2022-12-24T20:17:29;9.00;99.90
55369;DHT22;41247;49.736;8.752;2022-12-24T20:21:10;9.00;99.90
55369;DHT22;41247;49.736;8.752;2022-12-24T20:24:51;9.00;99.90
55369;DHT22;41247;49.736;8.752;2022-12-24T20:28:33;9.00;99.90
55369;DHT22;41247;49.736;8.752;2022-12-24T20:32:15;9.00;99.90
55369;DHT22;41247;49.736;8.752;2022-12-24T20:36:00;9.00;99.90
55369;DHT22;41247;49.736;8.752;2022-12-24T20:39:41;9.00;99.90
55369;DHT22;41247;49.736;8.752;2022-12-24T20:43:22;9.00;99.90
55369;DHT22;41247;49.736;8.752;2022-12-24T20:47:03;9.00;99.90
55369;DHT22;41247;49.736;8.752;2022-12-24T20:50:43;8.90;99.90
55369;DHT22;41247;49.736;8.752;2022-12-24T20:54:27;8.90;99.90
55369;DHT22;41247;49.736;8.752;2022-12-24T20:58:10;8.90;99.90
55369;DHT22;41247;49.736;8.752;2022-12-24T21:01:57;8.90;99.90
55369;DHT22;41247;49.736;8.752;2022-12-24T21:05:41;8.90;99.90
55369;DHT22;41247;49.736;8.752;2022-12-24T21:09:22;8.90;99.90
55369;DHT22;41247;49.736;8.752;2022-12-24T21:13:04;8.90;99.90
55369;DHT22;41247;49.736;8.752;2022-12-24T21:16:45;8.90;99.90
55369;DHT22;41247;49.736;8.752;2022-12-24T21:20:44;8.90;99.90
55369;DHT22;41247;49.736;8.752;2022-12-24T21:24:25;8.90;99.90
55369;DHT22;41247;49.736;8.752;2022-12-24T21:28:05;8.90;99.90
55369;DHT22;41247;49.736;8.752;2022-12-24T21:31:46;8.90;99.90
55369;DHT22;41247;49.736;8.752;2022-12-24T21:35:27;8.90;99.90
55369;DHT22;41247;49.736;8.752;2022-12-24T21:39:07;8.90;99.90
55369;DHT22;41247;49.736;8.752;2022-12-24T21:42:48;8.80;99.90
55369;DHT22;41247;49.736;8.752;2022-12-24T21:46:29;8.90;99.90
55369;DHT22;41247;49.736;8.752;2022-12-24T21:50:10;8.90;99.90
55369;DHT22;41247;49.736;8.752;2022-12-24T21:53:51;8.90;99.90
55369;DHT22;41247;49.736;8.752;2022-12-24T21:57:32;8.90;99.90
55369;DHT22;41247;49.736;8.752;2022-12-24T22:01:13;8.90;99.90
55369;DHT22;41247;49.736;8.752;2022-12-24T22:04:53;8.90;99.90
55369;DHT22;41247;49.736;8.752;2022-12-24T22:08:34;8.90;99.90
55369;DHT22;41247;49.736;8.752;2022-12-24T22:12:14;8.90;99.90
55369;DHT22;41247;49.736;8.752;2022-12-24T22:15:55;8.90;99.90
55369;DHT22;41247;49.736;8.752;2022-12-24T22:19:36;8.80;99.90
55369;DHT22;41247;49.736;8.752;2022-12-24T22:23:18;8.80;99.90
55369;DHT22;41247;49.736;8.752;2022-12-24T22:26:58;8.70;99.90
55369;DHT22;41247;49.736;8.752;2022-12-24T22:30:40;8.70;99.90
55369;DHT22;41247;49.736;8.752;2022-12-24T22:34:21;8.70;99.90
55369;DHT22;41247;49.736;8.752;2022-12-24T22:38:02;8.70;99.90
55369;DHT22;41247;49.736;8.752;2022-12-24T22:41:43;8.60;99.90
55369;DHT22;41247;49.736;8.752;2022-12-24T22:45:23;8.60;99.90
55369;DHT22;41247;49.736;8.752;2022-12-24T22:49:04;8.60;99.90
55369;DHT22;41247;49.736;8.752;2022-12-24T22:52:44;8.60;99.90
55369;DHT22;41247;49.736;8.752;2022-12-24T22:56:25;8.60;99.90
55369;DHT22;41247;49.736;8.752;2022-12-24T23:00:15;8.60;99.90
55369;DHT22;41247;49.736;8.752;2022-12-24T23:04:15;8.70;99.90
55369;DHT22;41247;49.736;8.752;2022-12-24T23:07:55;8.60;99.90
55369;DHT22;41247;49.736;8.752;2022-12-24T23:11:36;8.60;99.90
55369;DHT22;41247;49.736;8.752;2022-12-24T23:15:16;8.60;99.90
55369;DHT22;41247;49.736;8.752;2022-12-24T23:18:59;8.60;99.90
55369;DHT22;41247;49.736;8.752;2022-12-24T23:22:40;8.60;99.90
55369;DHT22;41247;49.736;8.752;2022-12-24T23:26:21;8.60;99.90
55369;DHT22;41247;49.736;8.752;2022-12-24T23:30:03;8.60;99.90
55369;DHT22;41247;49.736;8.752;2022-12-24T23:33:45;8.60;99.90
55369;DHT22;41247;49.736;8.752;2022-12-24T23:37:26;8.60;99.90
55369;DHT22;41247;49.736;8.752;2022-12-24T23:41:12;8.60;99.90
55369;DHT22;41247;49.736;8.752;2022-12-24T23:44:55;8.60;99.90
55369;DHT22;41247;49.736;8.752;2022-12-24T23:48:36;8.50;99.90
55369;DHT22;41247;49.736;8.752;2022-12-24T23:52:17;8.50;99.90
55369;DHT22;41247;49.736;8.752;2022-12-24T23:55:57;8.50;99.90
55369;DHT22;41247;49.736;8.752;2022-12-24T23:59:38;8.50;99.90
